Time;durP1;ratioP1;P1;durP2;ratioP2;P2;SDS_P1;SDS_P2;PMS_P1;PMS_P2;Temp;Humidity;BMP_temperature;BMP_pressure;BME280_temperature;BME280_humidity;BME280_pressure;Samples;Min_cycle;Max_cycle;Signal;HPM_P1;HPM_P2
2021/03/06 00:01:13;;;;;;;14.90;4.55;;;;;;;-2.01;88.03;103562.41;5003278;28;20060;-74
2021/03/06 00:03:39;;;;;;;11.85;4.63;;;;;;;-1.98;88.06;103559.34;5002980;28;20301;-73
2021/03/06 00:06:04;;;;;;;12.43;4.60;;;;;;;-1.90;89.29;103562.06;5018765;28;20301;-73
2021/03/06 00:08:30;;;;;;;7.68;4.30;;;;;;;-1.90;88.26;103559.56;5021072;28;20336;-73
2021/03/06 00:10:56;;;;;;;9.63;4.03;;;;;;;-1.95;87.27;103563.16;5022584;28;20495;-73
2021/03/06 00:13:22;;;;;;;10.18;4.13;;;;;;;-2.02;87.45;103555.56;5022733;28;20176;-73
2021/03/06 00:15:47;;;;;;;7.03;3.83;;;;;;;-2.05;86.99;103562.78;5021048;28;20375;-74
2021/03/06 00:18:13;;;;;;;8.15;3.70;;;;;;;-2.08;87.07;103557.38;5021397;28;20426;-75
2021/03/06 00:20:38;;;;;;;12.48;4.85;;;;;;;-2.08;87.50;103559.91;5022881;28;20426;-73
2021/03/06 00:23:04;;;;;;;8.35;4.20;;;;;;;-2.05;87.93;103555.22;5022223;28;20024;-74
2021/03/06 00:25:29;;;;;;;10.45;4.00;;;;;;;-2.09;86.88;103555.59;5022289;28;20348;-74
2021/03/06 00:27:55;;;;;;;10.85;4.72;;;;;;;-2.12;87.27;103550.19;5005808;28;20483;-74
2021/03/06 00:30:21;;;;;;;7.50;3.83;;;;;;;-2.14;86.96;103553.25;5020308;28;20349;-74
2021/03/06 00:32:47;;;;;;;8.70;4.15;;;;;;;-2.15;87.21;103557.38;5020776;28;20109;-73
2021/03/06 00:35:13;;;;;;;11.10;4.00;;;;;;;-2.15;86.64;103554.88;5020253;28;20192;-74
2021/03/06 00:37:39;;;;;;;8.23;3.93;;;;;;;-2.18;86.85;103554.50;5020620;28;20158;-74
2021/03/06 00:40:07;;;;;;;11.77;4.88;;;;;;;-2.15;86.92;103561.53;5022264;28;20340;-75
2021/03/06 00:42:32;;;;;;;10.60;4.30;;;;;;;-2.11;88.01;103558.66;5020256;28;20055;-74
2021/03/06 00:44:58;;;;;;;11.52;3.60;;;;;;;-2.09;89.10;103559.72;5021472;28;20466;-74
2021/03/06 00:47:23;;;;;;;13.23;4.20;;;;;;;-2.04;89.79;103564.56;5020213;28;20359;-74
2021/03/06 00:49:49;;;;;;;14.95;4.07;;;;;;;-2.06;89.17;103558.47;5019969;28;20349;-74
2021/03/06 00:52:14;;;;;;;10.30;3.72;;;;;;;-2.05;89.51;103559.34;5021823;28;20336;-74
2021/03/06 00:54:40;;;;;;;10.18;4.53;;;;;;;-2.00;90.21;103560.78;5021650;28;20177;-74
2021/03/06 00:57:06;;;;;;;10.65;3.55;;;;;;;-2.01;89.80;103552.34;5023893;28;20421;-74
2021/03/06 00:59:31;;;;;;;10.27;3.70;;;;;;;-2.07;88.74;103551.63;5026728;28;20359;-74
2021/03/06 01:01:56;;;;;;;14.55;3.97;;;;;;;-2.11;88.18;103549.47;5026644;28;20351;-73
2021/03/06 01:04:22;;;;;;;9.15;3.33;;;;;;;-2.11;88.68;103554.50;5026763;28;20446;-74
2021/03/06 01:06:47;;;;;;;7.07;3.08;;;;;;;-2.12;87.94;103552.72;5028664;28;20319;-74
2021/03/06 01:09:13;;;;;;;10.35;3.50;;;;;;;-2.14;87.80;103555.78;5026414;28;20395;-75
2021/03/06 01:11:39;;;;;;;7.60;3.22;;;;;;;-2.14;87.67;103563.31;5028736;28;20317;-75
2021/03/06 01:14:05;;;;;;;10.77;4.03;;;;;;;-2.16;88.74;103549.66;5028353;28;20363;-74
2021/03/06 01:16:30;;;;;;;11.30;4.25;;;;;;;-2.18;87.96;103556.13;5028227;28;20034;-73
2021/03/06 01:18:56;;;;;;;12.75;4.20;;;;;;;-2.19;88.55;103545.16;5026566;28;20293;-73
2021/03/06 01:21:22;;;;;;;11.30;3.88;;;;;;;-2.17;88.88;103550.38;5028023;28;20371;-74
2021/03/06 01:23:47;;;;;;;7.28;3.47;;;;;;;-2.20;88.70;103550.91;5026620;28;20351;-74
2021/03/06 01:26:13;;;;;;;13.13;4.07;;;;;;;-2.25;88.33;103547.88;5026475;28;20023;-74
2021/03/06 01:28:38;;;;;;;8.98;4.82;;;;;;;-2.26;87.83;103550.19;5028155;28;20385;-74
2021/03/06 01:31:04;;;;;;;10.32;3.70;;;;;;;-2.27;88.31;103550.91;5026519;28;20344;-74
2021/03/06 01:33:29;;;;;;;8.27;4.00;;;;;;;-2.32;88.41;103542.78;5026168;28;20336;-73
2021/03/06 01:35:55;;;;;;;12.02;3.72;;;;;;;-2.30;88.08;103540.47;5027640;28;20193;-74
2021/03/06 01:38:20;;;;;;;8.57;3.47;;;;;;;-2.36;88.06;103534.69;5028379;28;20319;-73
2021/03/06 01:40:46;;;;;;;8.27;3.78;;;;;;;-2.37;88.31;103530.38;5026407;28;20385;-74
2021/03/06 01:43:14;;;;;;;8.35;3.88;;;;;;;-2.37;89.06;103537.94;5026305;28;20538;-74
2021/03/06 01:45:40;;;;;;;8.87;3.77;;;;;;;-2.38;88.69;103532.00;5003062;28;20549;-74
2021/03/06 01:48:06;;;;;;;11.10;3.60;;;;;;;-2.36;89.29;103529.66;5024985;28;20031;-74
2021/03/06 01:50:38;;;;;;;8.10;3.50;;;;;;;-2.36;88.64;103524.63;5026265;28;20020;-74
2021/03/06 01:53:05;;;;;;;9.43;3.10;;;;;;;-2.45;88.57;103531.09;5026375;28;20565;-74
2021/03/06 01:55:35;;;;;;;5.50;3.07;;;;;;;-2.50;88.13;103540.63;5027595;28;20135;-74
2021/03/06 01:58:02;;;;;;;7.70;3.27;;;;;;;-2.53;87.87;103535.22;5027983;28;20032;-74
2021/03/06 02:00:28;;;;;;;7.87;3.70;;;;;;;-2.55;87.67;103537.56;5026168;28;20568;-74
2021/03/06 02:02:55;;;;;;;8.60;3.28;;;;;;;-2.56;88.24;103530.75;5026577;28;20038;-74
2021/03/06 02:05:20;;;;;;;9.13;3.70;;;;;;;-2.59;88.66;103530.38;5026046;28;20131;-75
2021/03/06 02:07:46;;;;;;;11.63;4.05;;;;;;;-2.55;89.48;103525.00;5026136;28;20378;-74
2021/03/06 02:10:13;;;;;;;11.63;3.58;;;;;;;-2.55;89.70;103532.53;5022099;28;20395;-74
2021/03/06 02:12:48;;;;;;;8.13;3.70;;;;;;;-2.55;89.79;103527.50;5024693;28;20122;-74
2021/03/06 02:15:32;;;;;;;8.67;3.10;;;;;;;-2.61;88.83;103528.38;5018014;28;20016;-74
2021/03/06 02:18:05;;;;;;;11.63;3.83;;;;;;;-2.66;88.45;103531.97;5024862;28;20835;-74
2021/03/06 02:20:49;;;;;;;11.90;3.87;;;;;;;-2.71;88.42;103528.00;5024712;28;20039;-74
2021/03/06 02:23:24;;;;;;;15.60;4.00;;;;;;;-2.72;89.94;103524.56;5024647;28;20024;-74
2021/03/06 02:26:08;;;;;;;10.20;4.20;;;;;;;-2.69;89.82;103522.44;4993374;28;20055;-74
2021/03/06 02:28:57;;;;;;;10.80;4.27;;;;;;;-2.72;89.80;103526.19;5022827;28;20032;-75
2021/03/06 02:31:25;;;;;;;11.80;3.83;;;;;;;-2.74;89.84;103518.47;5023037;28;20563;-74
2021/03/06 02:34:17;;;;;;;9.53;3.93;;;;;;;-2.78;89.47;103530.50;5024391;28;20038;-75
2021/03/06 02:37:04;;;;;;;11.77;4.40;;;;;;;-2.78;90.41;103525.47;5022765;28;20038;-74
2021/03/06 02:39:33;;;;;;;10.23;3.83;;;;;;;-2.72;91.73;103518.66;5022745;28;20024;-74
2021/03/06 02:42:01;;;;;;;12.93;4.50;;;;;;;-2.73;92.00;103510.19;5024223;28;20130;-74
2021/03/06 02:44:29;;;;;;;10.67;4.33;;;;;;;-2.79;91.54;103524.56;5022491;28;20020;-75
2021/03/06 02:46:56;;;;;;;13.10;4.37;;;;;;;-2.80;91.94;103521.88;5024261;28;20023;-74
2021/03/06 02:49:22;;;;;;;9.03;4.00;;;;;;;-2.88;90.66;103519.34;5024335;28;20024;-74
2021/03/06 02:51:48;;;;;;;9.82;3.80;;;;;;;-2.92;89.95;103517.19;5023080;28;20306;-75
2021/03/06 02:54:14;;;;;;;9.10;3.70;;;;;;;-2.97;89.70;103512.28;5022758;28;20118;-74
2021/03/06 02:56:40;;;;;;;11.63;4.40;;;;;;;-2.93;90.16;103522.00;5022928;28;20028;-74
2021/03/06 02:59:47;;;;;;;11.57;4.40;;;;;;;-2.91;90.74;103518.09;5023988;28;20341;-74
2021/03/06 03:02:25;;;;;;;6.83;3.90;;;;;;;-2.89;91.62;103512.53;5017149;28;20052;-76
2021/03/06 03:05:27;;;;;;;10.87;4.53;;;;;;;-2.93;90.89;103511.94;5021849;28;20043;-75
2021/03/06 03:08:05;;;;;;;7.07;3.13;;;;;;;-2.96;90.49;103509.97;5022005;28;20024;-75
2021/03/06 03:10:33;;;;;;;14.23;3.93;;;;;;;-3.00;89.58;103506.91;5023692;28;20081;-75
2021/03/06 03:13:14;;;;;;;12.13;4.53;;;;;;;-2.95;89.92;103504.22;5021831;28;20020;-75
2021/03/06 03:15:45;;;;;;;12.20;4.63;;;;;;;-2.88;90.66;103500.84;5022168;28;20671;-75
2021/03/06 03:18:20;;;;;;;10.30;3.83;;;;;;;-2.90;90.30;103507.31;5021624;28;20038;-76
2021/03/06 03:20:51;;;;;;;9.03;4.03;;;;;;;-2.89;91.15;103499.03;5022139;28;20020;-75
2021/03/06 03:23:35;;;;;;;12.93;4.67;;;;;;;-2.91;90.66;103497.97;5023820;28;20032;-76
2021/03/06 03:26:05;;;;;;;11.53;4.20;;;;;;;-2.91;90.54;103503.00;5023782;28;20020;-76
2021/03/06 03:28:33;;;;;;;9.67;4.07;;;;;;;-2.92;90.37;103503.72;5021887;28;20648;-76
2021/03/06 03:31:01;;;;;;;9.97;3.60;;;;;;;-2.93;89.84;103506.91;5022292;28;20059;-75
2021/03/06 03:33:28;;;;;;;8.20;4.13;;;;;;;-2.99;89.80;103508.69;5021731;28;20096;-75
2021/03/06 03:35:54;;;;;;;7.37;3.60;;;;;;;-2.99;90.06;103503.66;5021682;28;20587;-76
2021/03/06 03:38:21;;;;;;;10.65;4.47;;;;;;;-3.02;90.29;103503.28;5022138;28;20032;-75
2021/03/06 03:40:47;;;;;;;9.90;3.63;;;;;;;-3.03;90.24;103512.47;5022179;28;20024;-76
2021/03/06 03:43:13;;;;;;;7.88;3.95;;;;;;;-3.05;90.98;103510.47;5023643;28;20328;-76
2021/03/06 03:45:39;;;;;;;9.02;4.57;;;;;;;-3.09;90.47;103510.81;5023545;28;20336;-76
2021/03/06 03:48:04;;;;;;;8.40;3.42;;;;;;;-3.12;91.01;103513.88;5023583;28;20024;-75
2021/03/06 03:50:30;;;;;;;11.40;3.85;;;;;;;-3.16;90.54;103511.69;5024380;28;20361;-76
2021/03/06 03:52:57;;;;;;;9.15;3.40;;;;;;;-3.19;90.22;103509.72;5022796;28;20461;-76
2021/03/06 03:55:24;;;;;;;7.77;3.63;;;;;;;-3.22;90.18;103505.94;5024005;28;20043;-76
2021/03/06 03:57:50;;;;;;;7.43;3.60;;;;;;;-3.22;89.98;103499.28;5023458;28;20054;-75
2021/03/06 04:00:17;;;;;;;11.15;4.47;;;;;;;-3.26;90.01;103499.59;5024088;28;20437;-75
2021/03/06 04:02:43;;;;;;;8.43;3.83;;;;;;;-3.28;90.15;103503.56;5023587;28;20201;-76
2021/03/06 04:05:10;;;;;;;;;;;;;;;-3.27;89.64;103501.94;5016314;28;20121;-76
2021/03/06 04:07:47;;;;;;;5.87;3.23;;;;;;;-3.30;89.70;103499.06;5024648;28;19947;-75
2021/03/06 04:10:14;;;;;;;10.80;4.23;;;;;;;-3.36;89.10;103510.88;5023691;28;20050;-76
2021/03/06 04:12:40;;;;;;;9.40;4.60;;;;;;;-3.40;89.42;103507.09;5021481;28;20027;-76
2021/03/06 04:15:08;;;;;;;13.35;4.47;;;;;;;-3.42;89.02;103505.13;5022364;28;20640;-75
2021/03/06 04:17:33;;;;;;;6.70;3.73;;;;;;;-3.42;90.02;103506.03;5022136;28;20027;-75
2021/03/06 04:19:59;;;;;;;7.28;3.65;;;;;;;-3.44;90.67;103504.94;5023773;28;20386;-75
2021/03/06 04:22:24;;;;;;;7.05;4.07;;;;;;;-3.47;90.39;103515.50;5021338;28;20410;-75
2021/03/06 04:24:50;;;;;;;8.98;4.40;;;;;;;-3.48;90.45;103517.84;5021788;28;20344;-75
2021/03/06 04:27:15;;;;;;;11.13;3.83;;;;;;;-3.45;90.48;103518.22;5020672;28;20344;-75
2021/03/06 04:29:41;;;;;;;6.03;3.53;;;;;;;-3.46;90.22;103521.44;5022496;28;20332;-75
2021/03/06 04:32:06;;;;;;;7.07;3.65;;;;;;;-3.53;90.05;103519.78;5019854;28;20467;-75
2021/03/06 04:34:32;;;;;;;5.13;3.13;;;;;;;-3.60;89.83;103517.22;5020124;28;20328;-76
2021/03/06 04:36:58;;;;;;;5.03;3.28;;;;;;;-3.63;89.43;103520.97;5020056;28;20385;-75
2021/03/06 04:39:23;;;;;;;6.40;3.25;;;;;;;-3.68;89.82;103525.44;5020552;28;20425;-75
2021/03/06 04:41:49;;;;;;;9.02;3.60;;;;;;;-3.66;89.62;103535.66;5020232;28;20341;-76
2021/03/06 04:44:14;;;;;;;8.38;3.30;;;;;;;-3.65;90.14;103533.34;5019887;28;20337;-76
2021/03/06 04:46:40;;;;;;;12.32;3.38;;;;;;;-3.67;90.03;103538.88;5020203;28;20353;-76
2021/03/06 04:49:05;;;;;;;6.78;2.90;;;;;;;-3.69;90.01;103532.78;5020079;28;20444;-76
2021/03/06 04:51:31;;;;;;;7.78;3.05;;;;;;;-3.67;90.00;103538.88;5020726;28;20355;-75
2021/03/06 04:53:56;;;;;;;5.45;3.13;;;;;;;-3.64;90.59;103539.25;5020224;28;20368;-76
2021/03/06 04:56:23;;;;;;;6.05;3.33;;;;;;;-3.53;90.49;103546.53;5020032;28;20433;-75
2021/03/06 04:58:49;;;;;;;6.03;3.10;;;;;;;-3.64;90.07;103539.25;5020406;28;20139;-76
2021/03/06 05:01:14;;;;;;;5.97;3.10;;;;;;;-3.65;89.90;103547.50;5020586;28;20170;-76
2021/03/06 05:03:40;;;;;;;5.43;2.65;;;;;;;-3.61;90.86;103547.16;5019919;28;20309;-75
2021/03/06 05:06:05;;;;;;;5.95;2.80;;;;;;;-3.62;90.95;103542.84;5023257;28;20333;-75
2021/03/06 05:08:31;;;;;;;4.13;2.63;;;;;;;-3.68;90.76;103547.13;5020515;28;20243;-75
2021/03/06 05:10:56;;;;;;;4.32;2.70;;;;;;;-3.71;90.67;103550.16;5020467;28;20425;-75
2021/03/06 05:13:22;;;;;;;6.72;3.08;;;;;;;-3.77;90.22;103547.81;5022326;28;20479;-75
2021/03/06 05:15:47;;;;;;;4.95;3.00;;;;;;;-3.78;90.69;103548.50;5023160;28;20354;-75
2021/03/06 05:18:13;;;;;;;4.35;2.75;;;;;;;-3.78;91.46;103545.09;5025636;28;20334;-76
2021/03/06 05:20:38;;;;;;;7.85;3.75;;;;;;;-3.80;91.50;103541.50;5022440;28;20328;-75
2021/03/06 05:23:04;;;;;;;9.13;3.95;;;;;;;-3.80;91.56;103541.50;5022162;28;20020;-74
2021/03/06 05:25:29;;;;;;;6.03;3.20;;;;;;;-3.78;92.08;103540.97;5022157;28;20024;-75
2021/03/06 05:27:55;;;;;;;6.82;3.47;;;;;;;-3.79;91.78;103536.66;5021325;28;20300;-75
2021/03/06 05:30:21;;;;;;;4.25;2.97;;;;;;;-3.85;90.79;103553.50;5027021;28;20228;-75
2021/03/06 05:32:47;;;;;;;4.77;2.97;;;;;;;-3.90;90.70;103553.63;5024304;28;20028;-75
2021/03/06 05:35:13;;;;;;;6.28;3.00;;;;;;;-3.96;90.26;103552.84;5023396;28;20481;-76
2021/03/06 05:37:38;;;;;;;5.00;2.80;;;;;;;-4.01;89.71;103551.38;5024581;28;20354;-75
2021/03/06 05:40:05;;;;;;;6.50;2.78;;;;;;;-4.06;89.61;103548.28;5024169;28;20401;-75
2021/03/06 05:42:31;;;;;;;9.03;3.77;;;;;;;-4.03;91.02;103548.66;5022990;28;20082;-75
2021/03/06 05:44:57;;;;;;;;;;;;;;;-4.00;91.90;103546.53;5028156;28;20024;-76
2021/03/06 05:47:22;;;;;;;11.80;4.70;;;;;;;-4.02;92.14;103545.44;5026984;28;20297;-75
2021/03/06 05:49:48;;;;;;;7.70;3.58;;;;;;;-3.97;92.40;103546.91;5028543;28;20309;-75
2021/03/06 05:52:19;;;;;;;4.10;2.40;;;;;;;-3.96;92.05;103552.84;5030019;28;20201;-75
2021/03/06 05:54:48;;;;;;;5.67;1.90;;;;;;;-4.02;91.02;103544.56;5014785;28;20193;-75
2021/03/06 05:57:14;;;;;;;7.70;2.53;;;;;;;-4.10;90.72;103553.66;5028237;28;20031;-75
2021/03/06 05:59:40;;;;;;;10.17;3.40;;;;;;;-4.11;90.83;103559.38;5024856;28;20023;-74
2021/03/06 06:02:06;;;;;;;8.18;3.90;;;;;;;-4.09;91.16;103562.97;5024624;28;20495;-74
2021/03/06 06:04:32;;;;;;;9.43;3.25;;;;;;;-4.03;91.55;103561.22;5025347;28;20317;-75
2021/03/06 06:07:01;;;;;;;4.87;2.53;;;;;;;-4.03;91.03;103565.34;5027154;28;20032;-75
2021/03/06 06:09:27;;;;;;;7.27;3.60;;;;;;;-4.09;91.59;103562.97;5026566;28;20871;-74
2021/03/06 06:11:52;;;;;;;12.63;4.05;;;;;;;-4.09;91.94;103573.91;5029479;28;20024;-75
2021/03/06 06:14:18;;;;;;;6.85;3.42;;;;;;;-4.05;91.85;103576.81;5030038;28;20373;-75
2021/03/06 06:16:43;;;;;;;9.38;4.45;;;;;;;-4.06;92.16;103578.41;5029194;28;20058;-75
2021/03/06 06:19:09;;;;;;;8.45;3.83;;;;;;;-4.04;91.91;103579.50;5029203;28;20189;-74
2021/03/06 06:21:43;;;;;;;9.05;3.67;;;;;;;-3.99;91.84;103578.47;5028221;28;20197;-74
2021/03/06 06:24:12;;;;;;;11.13;4.17;;;;;;;-3.93;92.08;103581.75;5030554;28;20027;-74
2021/03/06 06:26:39;;;;;;;12.77;4.17;;;;;;;-3.83;91.93;103582.22;5029640;28;20031;-75
2021/03/06 06:29:04;;;;;;;11.13;4.30;;;;;;;-3.81;91.96;103585.81;5028354;28;20093;-75
2021/03/06 06:31:30;;;;;;;6.22;3.00;;;;;;;-3.74;92.15;103591.59;5029031;28;20130;-74
2021/03/06 06:33:56;;;;;;;7.65;3.67;;;;;;;-3.67;92.00;103594.13;5026509;28;20322;-74
2021/03/06 06:36:39;;;;;;;7.15;3.75;;;;;;;-3.61;91.77;103590.78;5024055;28;20192;-74
2021/03/06 06:39:09;;;;;;;11.90;3.83;;;;;;;-3.55;91.93;103588.16;5031717;28;20032;-77
2021/03/06 06:41:51;;;;;;;7.47;3.57;;;;;;;-3.45;91.45;103589.47;5034648;28;20031;-75
2021/03/06 06:44:17;;;;;;;9.20;5.00;;;;;;;-3.34;91.41;103598.31;5030359;28;20142;-74
2021/03/06 06:46:43;;;;;;;11.82;4.28;;;;;;;-3.23;91.19;103598.03;5023946;28;20356;-74
2021/03/06 06:49:09;;;;;;;;;;;;;;;-3.18;91.38;103602.00;5025681;28;20148;-73
2021/03/06 06:51:34;;;;;;;8.87;3.20;;;;;;;-3.12;90.14;103606.88;5023039;28;20105;-73
2021/03/06 06:54:10;;;;;;;8.50;4.20;;;;;;;-3.09;89.73;103606.38;5021855;28;20343;-73
2021/03/06 06:56:36;;;;;;;9.00;4.50;;;;;;;-3.01;90.16;103609.09;5021447;28;20062;-73
2021/03/06 06:59:08;;;;;;;15.90;4.45;;;;;;;-2.93;89.86;103615.97;5023769;28;20189;-73
2021/03/06 07:01:36;;;;;;;11.27;4.17;;;;;;;-2.85;89.92;103619.41;5023527;28;20043;-73
2021/03/06 07:04:03;;;;;;;7.87;3.43;;;;;;;-2.71;89.86;103613.53;5023297;28;20027;-73
2021/03/06 07:06:30;;;;;;;9.67;4.67;;;;;;;-2.60;90.21;103608.19;5021501;28;20024;-74
2021/03/06 07:09:08;;;;;;;10.27;5.53;;;;;;;-2.43;91.10;103603.56;5024703;28;20024;-72
2021/03/06 07:11:33;;;;;;;10.90;5.80;;;;;;;-2.26;90.77;103613.13;5022154;28;20039;-73
2021/03/06 07:13:59;;;;;;;9.98;6.28;;;;;;;-1.99;91.67;103605.41;5023874;28;20320;-74
2021/03/06 07:16:54;;;;;;;16.77;5.97;;;;;;;-1.33;91.10;103611.47;5023968;28;20139;-74
2021/03/06 07:19:20;;;;;;;10.37;5.00;;;;;;;-0.46;89.44;103598.72;5022212;28;20067;-74
2021/03/06 07:21:50;;;;;;;12.40;4.85;;;;;;;0.40;85.02;103612.53;5021598;28;20356;-74
2021/03/06 07:24:16;;;;;;;12.43;4.23;;;;;;;1.06;80.39;103614.53;5021712;28;20052;-74
2021/03/06 07:26:41;;;;;;;8.23;4.63;;;;;;;1.22;78.61;103615.41;5024075;28;20106;-74
2021/03/06 07:29:07;;;;;;;7.20;4.13;;;;;;;1.69;77.11;103612.78;5026906;28;20420;-74
2021/03/06 07:31:37;;;;;;;8.20;4.50;;;;;;;2.54;77.04;103623.16;5024975;28;20336;-76
2021/03/06 07:34:05;;;;;;;9.97;4.67;;;;;;;3.86;75.49;103620.06;5026330;28;20024;-72
2021/03/06 07:36:34;;;;;;;12.87;4.90;;;;;;;4.96;71.65;103608.31;5027245;28;20583;-73
2021/03/06 07:39:01;;;;;;;6.80;3.90;;;;;;;5.95;65.65;103603.53;5026285;28;20032;-73
2021/03/06 07:41:32;;;;;;;7.47;4.10;;;;;;;6.84;65.88;103605.19;5045978;28;20064;-74
2021/03/06 07:44:01;;;;;;;9.03;4.27;;;;;;;6.70;62.36;103599.69;5033591;28;20031;-76
2021/03/06 07:46:29;;;;;;;8.00;3.80;;;;;;;6.50;64.65;103605.66;5039832;28;20027;-77
2021/03/06 07:49:00;;;;;;;8.82;4.20;;;;;;;6.39;62.88;103596.22;5050833;28;20085;-76
2021/03/06 07:51:28;;;;;;;11.27;3.97;;;;;;;6.76;66.37;103601.09;5049913;28;20651;-77
2021/03/06 07:53:55;;;;;;;11.57;4.15;;;;;;;7.19;64.69;103599.53;5035375;28;20091;-76
2021/03/06 07:56:24;;;;;;;7.00;3.55;;;;;;;7.61;61.38;103596.97;5042219;28;20031;-76
2021/03/06 07:58:55;;;;;;;8.68;3.25;;;;;;;7.07;61.68;103603.63;5047982;28;20059;-76
2021/03/06 08:01:29;;;;;;;8.55;3.42;;;;;;;6.67;63.18;103590.09;5047456;28;20027;-76
2021/03/06 08:03:56;;;;;;;8.48;4.10;;;;;;;7.09;66.59;103600.41;5042854;28;20026;-76
2021/03/06 08:06:32;;;;;;;;;;;;;;;7.59;62.24;103597.63;5041558;28;20018;-76
2021/03/06 08:09:32;;;;;;;10.55;4.30;;;;;;;7.78;62.76;103609.41;5045211;28;19916;-76
2021/03/06 08:12:08;;;;;;;9.95;4.25;;;;;;;8.82;61.63;103606.38;5043661;28;20039;-76
2021/03/06 08:14:42;;;;;;;9.38;4.03;;;;;;;9.33;58.26;103596.47;5044917;28;20024;-76
2021/03/06 08:17:30;;;;;;;9.95;5.10;;;;;;;9.90;59.74;103602.34;5042387;28;20020;-75
2021/03/06 08:19:55;;;;;;;9.07;4.35;;;;;;;10.39;55.50;103598.06;5036758;28;20016;-76
2021/03/06 08:22:21;;;;;;;9.70;4.30;;;;;;;9.98;58.31;103602.88;5042311;28;20516;-75
2021/03/06 08:24:46;;;;;;;;;;;;;;;11.17;54.12;103599.03;5043423;28;20016;-75
2021/03/06 08:27:13;;;;;;;11.93;4.65;;;;;;;11.66;53.49;103598.72;5040799;28;20334;-76
2021/03/06 08:29:41;;;;;;;9.50;3.60;;;;;;;11.26;53.58;103603.88;5034393;28;20126;-74
2021/03/06 08:32:27;;;;;;;11.70;3.40;;;;;;;11.57;49.53;103598.13;5035140;28;20042;-76
2021/03/06 08:34:55;;;;;;;9.32;3.22;;;;;;;11.39;50.38;103603.91;5034937;28;20152;-75
2021/03/06 08:37:20;;;;;;;9.55;3.05;;;;;;;11.33;51.00;103610.31;5033529;28;20062;-75
2021/03/06 08:39:56;;;;;;;6.28;2.42;;;;;;;10.90;50.59;103602.38;5033745;28;20275;-74
2021/03/06 08:42:24;;;;;;;7.97;2.90;;;;;;;10.96;52.88;103602.75;5034099;28;20184;-74
2021/03/06 08:44:50;;;;;;;6.68;2.65;;;;;;;11.00;52.28;103604.75;5042408;28;20035;-79
2021/03/06 08:47:28;;;;;;;7.70;3.75;;;;;;;10.46;54.36;103602.84;5041469;28;20065;-75
2021/03/06 08:50:21;;;;;;;6.75;2.50;;;;;;;11.09;51.29;103602.81;5041127;28;20077;-76
2021/03/06 08:53:00;;;;;;;10.88;2.70;;;;;;;12.48;50.45;103600.41;5042592;28;20032;-74
2021/03/06 08:55:29;;;;;;;9.38;3.28;;;;;;;13.01;50.01;103604.44;5040280;28;20051;-75
2021/03/06 08:57:55;;;;;;;9.88;2.65;;;;;;;13.64;46.85;103601.16;5042689;28;20020;-75
2021/03/06 09:00:28;;;;;;;8.55;2.40;;;;;;;12.90;47.25;103608.06;5042812;28;20423;-75
2021/03/06 09:02:54;;;;;;;7.70;2.65;;;;;;;13.20;49.38;103597.78;5044793;28;20604;-75
2021/03/06 09:05:27;;;;;;;5.57;2.40;;;;;;;15.38;44.47;103597.25;5041969;28;20097;-75
2021/03/06 09:07:57;;;;;;;8.82;2.30;;;;;;;14.56;40.62;103598.31;5042476;28;20032;-74
2021/03/06 09:10:30;;;;;;;9.70;2.22;;;;;;;13.49;45.63;103605.47;5039993;28;20023;-74
2021/03/06 09:13:08;;;;;;;5.75;2.17;;;;;;;13.29;44.11;103608.63;5038685;28;20024;-74
2021/03/06 09:15:39;;;;;;;7.47;2.03;;;;;;;12.33;45.90;103606.38;5032036;28;20027;-76
2021/03/06 09:18:07;;;;;;;7.07;1.42;;;;;;;12.38;45.15;103612.75;5029430;28;20459;-74
2021/03/06 09:20:41;;;;;;;6.97;1.80;;;;;;;12.64;47.27;103605.66;5036421;28;20132;-77
2021/03/06 09:23:06;;;;;;;10.15;2.50;;;;;;;12.78;47.68;103613.41;5035449;28;20032;-74
2021/03/06 09:25:39;;;;;;;5.32;1.77;;;;;;;12.50;46.36;103616.84;5033493;28;20375;-75
2021/03/06 09:28:10;;;;;;;3.97;1.65;;;;;;;13.36;44.88;103603.03;5036363;28;20305;-76
2021/03/06 09:30:39;;;;;;;5.75;1.77;;;;;;;13.52;43.79;103610.81;5042183;28;20024;-75
2021/03/06 09:33:20;;;;;;;5.57;1.50;;;;;;;12.91;45.09;103599.53;5030171;28;20024;-74
2021/03/06 09:35:55;;;;;;;7.45;1.55;;;;;;;14.35;46.08;103603.25;5040285;28;20089;-74
2021/03/06 09:38:21;;;;;;;6.88;1.17;;;;;;;14.80;40.71;103594.41;5038202;28;20063;-77
2021/03/06 09:40:46;;;;;;;7.90;1.38;;;;;;;15.62;41.33;103601.88;5041173;28;20582;-74
2021/03/06 09:43:12;;;;;;;;;;;;;;;16.57;39.68;103597.53;5039587;28;20127;-74
2021/03/06 09:45:38;;;;;;;3.67;1.35;;;;;;;15.82;40.57;103603.66;5035630;28;19915;-75
2021/03/06 09:48:05;;;;;;;;;;;;;;;14.14;40.97;103595.25;5035583;28;20483;-75
2021/03/06 09:50:31;;;;;;;8.15;2.30;;;;;;;14.49;40.66;103599.72;5032702;28;20009;-74
2021/03/06 09:52:56;;;;;;;7.85;1.40;;;;;;;12.67;44.32;103601.56;5032451;28;20031;-74
2021/03/06 09:55:22;;;;;;;8.65;1.88;;;;;;;13.22;44.18;103597.06;5032268;28;20219;-74
2021/03/06 09:57:47;;;;;;;6.57;0.98;;;;;;;14.43;41.54;103590.75;5032317;28;20469;-74
2021/03/06 10:00:23;;;;;;;;;;;;;;;15.45;40.43;103594.16;5036345;28;20032;-74
2021/03/06 10:02:50;;;;;;;7.22;1.50;;;;;;;16.28;38.41;103585.03;5036031;28;20057;-75
2021/03/06 10:05:21;;;;;;;6.60;1.70;;;;;;;16.13;35.61;103583.50;5032857;28;20028;-74
2021/03/06 10:07:48;;;;;;;4.57;1.30;;;;;;;14.73;39.29;103576.81;5030858;28;20139;-75
2021/03/06 10:10:14;;;;;;;3.97;1.23;;;;;;;16.22;37.26;103592.50;5032067;28;20102;-74
2021/03/06 10:12:42;;;;;;;;;;;;;;;13.45;41.80;103589.72;5033858;28;20028;-74
2021/03/06 10:15:10;;;;;;;6.45;1.25;;;;;;;12.69;42.90;103581.03;5028767;28;19951;-74
2021/03/06 10:17:35;;;;;;;7.00;1.20;;;;;;;10.77;47.31;103584.34;5029620;28;20769;-74
2021/03/06 10:20:01;;;;;;;6.82;1.40;;;;;;;10.87;47.98;103584.16;5028961;28;20032;-73
2021/03/06 10:22:26;;;;;;;4.55;1.77;;;;;;;10.90;48.62;103587.81;5029652;28;20303;-72
2021/03/06 10:24:58;;;;;;;8.18;1.48;;;;;;;9.86;49.17;103587.50;5028740;28;20024;-73
2021/03/06 10:27:45;;;;;;;5.93;1.57;;;;;;;8.51;53.43;103598.03;5028613;28;20192;-74
2021/03/06 10:30:14;;;;;;;9.13;1.97;;;;;;;7.97;56.78;103592.97;5031321;28;20366;-74
2021/03/06 10:32:51;;;;;;;12.43;2.50;;;;;;;10.37;51.83;103580.75;5029775;28;20028;-73
2021/03/06 10:35:42;;;;;;;7.70;2.17;;;;;;;11.62;48.80;103578.72;5028816;28;20809;-73
2021/03/06 10:38:14;;;;;;;5.45;1.10;;;;;;;12.06;43.44;103573.81;5029874;28;20028;-73
2021/03/06 10:40:55;;;;;;;9.90;1.40;;;;;;;12.19;42.54;103581.47;5029541;28;20200;-72
2021/03/06 10:43:39;;;;;;;3.95;1.13;;;;;;;11.14;45.61;103573.13;5028584;28;20027;-72
2021/03/06 10:46:19;;;;;;;8.88;1.30;;;;;;;10.07;48.86;103575.25;5028971;28;20020;-72
2021/03/06 10:48:50;;;;;;;4.67;0.93;;;;;;;9.20;49.42;103575.88;5031754;28;20341;-72
2021/03/06 10:51:15;;;;;;;9.03;1.30;;;;;;;8.61;50.35;103575.78;5029143;28;20097;-73
2021/03/06 10:53:41;;;;;;;7.10;1.23;;;;;;;7.83;51.22;103578.19;5029913;28;20247;-72
2021/03/06 10:56:19;;;;;;;6.68;1.17;;;;;;;7.30;54.03;103580.81;5028404;28;20567;-73
2021/03/06 10:58:46;;;;;;;7.23;1.93;;;;;;;7.60;55.27;103573.81;5028225;28;20024;-72
2021/03/06 11:01:15;;;;;;;7.00;1.57;;;;;;;8.27;54.39;103568.84;5027808;28;20024;-73
2021/03/06 11:03:44;;;;;;;8.37;1.23;;;;;;;7.90;52.49;103568.56;5029337;28;20376;-74
2021/03/06 11:06:10;;;;;;;4.13;1.80;;;;;;;7.30;54.50;103567.16;5030487;28;20047;-73
2021/03/06 11:08:36;;;;;;;7.00;1.60;;;;;;;7.00;57.30;103570.66;5031902;28;20117;-74
2021/03/06 11:11:02;;;;;;;7.40;1.25;;;;;;;7.39;56.74;103570.44;5038077;28;20248;-73
2021/03/06 11:13:38;;;;;;;9.10;1.20;;;;;;;7.98;51.35;103566.59;5034365;28;20257;-74
2021/03/06 11:16:04;;;;;;;6.47;1.50;;;;;;;8.58;50.28;103565.31;5038275;28;20101;-73
2021/03/06 11:18:29;;;;;;;5.07;1.27;;;;;;;8.37;50.60;103573.91;5034868;28;20420;-73
2021/03/06 11:20:54;;;;;;;5.47;1.23;;;;;;;7.59;51.26;103569.47;5036627;28;20031;-73
2021/03/06 11:23:20;;;;;;;8.32;1.60;;;;;;;7.65;53.53;103572.50;5036775;28;20595;-74
2021/03/06 11:25:45;;;;;;;4.95;1.10;;;;;;;7.68;53.22;103570.19;5034166;28;20471;-74
2021/03/06 11:28:14;;;;;;;5.20;1.00;;;;;;;7.22;49.71;103571.66;5038362;28;20233;-73
2021/03/06 11:30:40;;;;;;;2.73;0.70;;;;;;;7.22;48.52;103570.75;5034919;28;20266;-73
2021/03/06 11:33:07;;;;;;;;;;;;;;;6.83;50.17;103559.97;5028092;28;20188;-73
2021/03/06 11:35:33;;;;;;;2.88;0.93;;;;;;;6.47;53.33;103572.22;5029433;28;19912;-73